Time;durP1;ratioP1;P1;durP2;ratioP2;P2;SDS_P1;SDS_P2;PMS_P1;PMS_P2;Temp;Humidity;BMP_temperature;BMP_pressure;BME280_temperature;BME280_humidity;BME280_pressure;Samples;Min_cycle;Max_cycle;Signal;HPM_P1;HPM_P2
2022/02/14 00:00:16;;;;;;;;;;;8.70;98.30;;;;;;5077756;28;19912;-72
2022/02/14 00:02:43;;;;;;;;;;;8.70;98.40;;;;;;5077646;28;19919;-72
2022/02/14 00:05:08;;;;;;;;;;;8.70;98.40;;;;;;5078104;28;19909;-72
2022/02/14 00:07:34;;;;;;;;;;;8.70;98.40;;;;;;5077756;28;19915;-72
2022/02/14 00:10:00;;;;;;;;;;;8.70;98.40;;;;;;5076895;28;19958;-72
2022/02/14 00:12:25;;;;;;;;;;;8.60;98.40;;;;;;5077454;28;19912;-72
2022/02/14 00:14:51;;;;;;;;;;;8.50;98.30;;;;;;5077797;28;19919;-72
2022/02/14 00:17:17;;;;;;;;;;;8.50;98.20;;;;;;5077643;28;19916;-72
2022/02/14 00:19:42;;;;;;;;;;;8.50;98.20;;;;;;5077523;28;20030;-72
2022/02/14 00:22:08;;;;;;;;;;;8.40;98.40;;;;;;5077161;28;19913;-72
2022/02/14 00:24:34;;;;;;;;;;;8.40;98.60;;;;;;5077199;28;19919;-72
2022/02/14 00:26:59;;;;;;;;;;;8.40;98.70;;;;;;5077238;28;20379;-72
2022/02/14 00:29:25;;;;;;;;;;;8.40;98.70;;;;;;5076140;28;19912;-72
2022/02/14 00:31:51;;;;;;;;;;;8.40;98.80;;;;;;5077484;28;19913;-72
2022/02/14 00:34:16;;;;;;;;;;;8.40;98.90;;;;;;5077269;28;19920;-72
2022/02/14 00:36:42;;;;;;;;;;;8.40;99.00;;;;;;5075663;28;19958;-71
2022/02/14 00:39:08;;;;;;;;;;;8.40;99.00;;;;;;5074107;28;19954;-72
2022/02/14 00:41:34;;;;;;;;;;;8.40;99.00;;;;;;5066279;28;19993;-72
2022/02/14 00:44:00;;;;;;;;;;;8.40;99.00;;;;;;5071149;28;19924;-72
2022/02/14 00:46:25;;;;;;;;;;;8.40;98.90;;;;;;5057889;28;19917;-72
2022/02/14 00:48:51;;;;;;;;;;;8.40;98.90;;;;;;5073865;28;19952;-72
2022/02/14 00:51:17;;;;;;;;;;;8.40;98.90;;;;;;5073065;28;19955;-72
2022/02/14 00:53:42;;;;;;;;;;;8.40;98.90;;;;;;5075878;28;19963;-72
2022/02/14 00:56:08;;;;;;;;;;;8.40;99.00;;;;;;5075974;28;20324;-72
2022/02/14 00:58:33;;;;;;;;;;;8.40;99.00;;;;;;5076297;28;19952;-72
2022/02/14 01:00:59;;;;;;;;;;;8.40;99.00;;;;;;5078175;28;20454;-72
2022/02/14 01:03:25;;;;;;;;;;;8.40;99.00;;;;;;5081483;28;19921;-72
2022/02/14 01:05:50;;;;;;;;;;;8.40;99.00;;;;;;5080852;28;20449;-72
2022/02/14 01:08:16;;;;;;;;;;;8.40;99.00;;;;;;5081250;28;19965;-72
2022/02/14 01:10:42;;;;;;;;;;;8.30;99.00;;;;;;5081078;28;19936;-72
2022/02/14 01:13:07;;;;;;;;;;;8.40;99.10;;;;;;5081426;28;19947;-72
2022/02/14 01:15:33;;;;;;;;;;;8.40;99.10;;;;;;5081719;28;19916;-71
2022/02/14 01:17:59;;;;;;;;;;;8.30;99.10;;;;;;5081057;28;19916;-72
2022/02/14 01:20:24;;;;;;;;;;;8.30;99.30;;;;;;5080172;28;19913;-72
2022/02/14 01:22:50;;;;;;;;;;;8.30;99.10;;;;;;5081217;28;19982;-72
2022/02/14 01:25:15;;;;;;;;;;;8.30;99.10;;;;;;5080618;28;19912;-72
2022/02/14 01:27:41;;;;;;;;;;;8.30;99.00;;;;;;5081180;28;19920;-72
2022/02/14 01:30:08;;;;;;;;;;;8.30;98.90;;;;;;5079664;28;19958;-72
2022/02/14 01:32:35;;;;;;;;;;;8.30;98.90;;;;;;5079047;28;19909;-72
2022/02/14 01:35:00;;;;;;;;;;;8.30;98.90;;;;;;5080624;28;20038;-72
2022/02/14 01:37:26;;;;;;;;;;;8.20;98.90;;;;;;5080178;28;19954;-72
2022/02/14 01:39:52;;;;;;;;;;;8.20;99.00;;;;;;5072364;28;19913;-71
2022/02/14 01:42:17;;;;;;;;;;;8.20;99.00;;;;;;5079766;28;19982;-72
2022/02/14 01:44:44;;;;;;;;;;;8.20;99.00;;;;;;5080323;28;19921;-72
2022/02/14 01:47:12;;;;;;;;;;;8.20;99.00;;;;;;5080096;28;20393;-72
2022/02/14 01:49:37;;;;;;;;;;;8.20;99.10;;;;;;5080800;28;19917;-72
2022/02/14 01:52:04;;;;;;;;;;;8.20;99.00;;;;;;5080608;28;19913;-72
2022/02/14 01:54:30;;;;;;;;;;;8.20;99.00;;;;;;5079630;28;19977;-72
2022/02/14 01:56:56;;;;;;;;;;;8.20;99.00;;;;;;5080329;28;20015;-72
2022/02/14 01:59:21;;;;;;;;;;;8.20;99.00;;;;;;5080073;28;19920;-72
2022/02/14 02:01:47;;;;;;;;;;;8.20;99.00;;;;;;5079945;28;20005;-71
2022/02/14 02:04:13;;;;;;;;;;;8.20;98.90;;;;;;5078707;28;19948;-72
2022/02/14 02:06:40;;;;;;;;;;;8.20;98.80;;;;;;5080561;28;19975;-72
2022/02/14 02:09:06;;;;;;;;;;;8.10;98.70;;;;;;5079726;28;19917;-72
2022/02/14 02:14:22;;;;;;;;;;;8.10;98.50;;;;;;5077796;28;19970;-72
2022/02/14 02:16:48;;;;;;;;;;;8.10;98.40;;;;;;5079185;28;19915;-72
2022/02/14 02:19:13;;;;;;;;;;;8.00;98.20;;;;;;5079743;28;19956;-72
2022/02/14 02:21:42;;;;;;;;;;;8.00;98.10;;;;;;5078260;28;19913;-72
2022/02/14 02:24:09;;;;;;;;;;;8.00;98.00;;;;;;5079802;28;19913;-72
2022/02/14 02:26:35;;;;;;;;;;;8.00;97.90;;;;;;5079731;28;19920;-72
2022/02/14 02:29:01;;;;;;;;;;;7.90;98.00;;;;;;5079392;28;19912;-72
2022/02/14 02:31:26;;;;;;;;;;;7.80;97.70;;;;;;5080277;28;19915;-72
2022/02/14 02:33:52;;;;;;;;;;;7.80;97.60;;;;;;5078603;28;19927;-72
2022/02/14 02:36:17;;;;;;;;;;;7.80;97.60;;;;;;5080209;28;19913;-72
2022/02/14 02:38:43;;;;;;;;;;;7.70;97.60;;;;;;5079208;28;19919;-72
2022/02/14 02:41:10;;;;;;;;;;;7.70;97.50;;;;;;5077645;28;20381;-72
2022/02/14 02:43:35;;;;;;;;;;;7.70;97.50;;;;;;5079407;28;19916;-72
2022/02/14 02:46:01;;;;;;;;;;;7.60;97.50;;;;;;5079080;28;19917;-72
2022/02/14 02:48:26;;;;;;;;;;;7.60;97.40;;;;;;5079756;28;19979;-72
2022/02/14 02:51:02;;;;;;;;;;;7.50;97.40;;;;;;5079078;28;20003;-71
2022/02/14 02:53:31;;;;;;;;;;;7.50;97.40;;;;;;5078503;28;20068;-72
2022/02/14 02:55:57;;;;;;;;;;;7.40;97.30;;;;;;5078512;28;19912;-71
2022/02/14 02:58:23;;;;;;;;;;;7.40;97.30;;;;;;5079284;28;19916;-72
2022/02/14 03:00:49;;;;;;;;;;;7.30;97.30;;;;;;5078994;28;20381;-72
2022/02/14 03:03:14;;;;;;;;;;;7.30;97.30;;;;;;5078438;28;19913;-72
2022/02/14 03:05:40;;;;;;;;;;;7.30;97.40;;;;;;5079142;28;19919;-72
2022/02/14 03:08:06;;;;;;;;;;;7.30;97.50;;;;;;5079016;28;19927;-72
2022/02/14 03:10:31;;;;;;;;;;;7.30;97.50;;;;;;5077267;28;19913;-72
2022/02/14 03:12:57;;;;;;;;;;;7.20;97.60;;;;;;5078842;28;19920;-72
2022/02/14 03:15:23;;;;;;;;;;;7.20;97.70;;;;;;5078819;28;19949;-71
2022/02/14 03:17:48;;;;;;;;;;;7.20;97.70;;;;;;5079292;28;19934;-71
2022/02/14 03:20:14;;;;;;;;;;;7.20;97.80;;;;;;5078816;28;20372;-72
2022/02/14 03:22:40;;;;;;;;;;;7.10;97.80;;;;;;5078793;28;19916;-72
2022/02/14 03:25:06;;;;;;;;;;;7.10;97.90;;;;;;5078761;28;19935;-72
2022/02/14 03:27:32;;;;;;;;;;;7.10;98.00;;;;;;5077376;28;19915;-72
2022/02/14 03:29:58;;;;;;;;;;;7.10;98.00;;;;;;5078768;28;19916;-72
2022/02/14 03:32:24;;;;;;;;;;;7.10;98.00;;;;;;5078923;28;20290;-72
2022/02/14 03:34:50;;;;;;;;;;;7.10;98.00;;;;;;5078228;28;19924;-71
2022/02/14 03:37:16;;;;;;;;;;;7.00;98.00;;;;;;5078661;28;19908;-72
2022/02/14 03:39:41;;;;;;;;;;;7.00;98.00;;;;;;5071502;28;19924;-72
2022/02/14 03:42:07;;;;;;;;;;;7.00;98.00;;;;;;5066479;28;19912;-72
2022/02/14 03:44:33;;;;;;;;;;;6.90;98.00;;;;;;5078095;28;20402;-71
2022/02/14 03:46:58;;;;;;;;;;;7.00;98.00;;;;;;5077690;28;19939;-72
2022/02/14 03:49:24;;;;;;;;;;;6.90;98.00;;;;;;5078359;28;19920;-72
2022/02/14 03:51:50;;;;;;;;;;;6.90;98.00;;;;;;5078630;28;19916;-72
2022/02/14 03:54:16;;;;;;;;;;;6.90;98.00;;;;;;5077106;28;19952;-72
2022/02/14 03:56:41;;;;;;;;;;;6.90;98.00;;;;;;5077031;28;19966;-72
2022/02/14 03:59:07;;;;;;;;;;;6.80;98.00;;;;;;5076707;28;19924;-72
2022/02/14 04:01:33;;;;;;;;;;;6.80;98.00;;;;;;5078375;28;19915;-72
2022/02/14 04:03:58;;;;;;;;;;;6.80;97.90;;;;;;5077245;28;19912;-72
2022/02/14 04:06:24;;;;;;;;;;;6.70;97.90;;;;;;5077661;28;20302;-72
2022/02/14 04:08:50;;;;;;;;;;;6.80;97.90;;;;;;5076735;28;19916;-72
2022/02/14 04:11:15;;;;;;;;;;;6.70;97.90;;;;;;5076680;28;20371;-72
2022/02/14 04:13:41;;;;;;;;;;;6.70;98.00;;;;;;5078049;28;19916;-72
2022/02/14 04:16:07;;;;;;;;;;;6.70;98.00;;;;;;5077331;28;19975;-72
2022/02/14 04:18:32;;;;;;;;;;;6.70;98.10;;;;;;5075643;28;19909;-72
2022/02/14 04:20:58;;;;;;;;;;;6.70;98.10;;;;;;5078100;28;19909;-72
2022/02/14 04:23:24;;;;;;;;;;;6.60;98.10;;;;;;5077907;28;20299;-72
2022/02/14 04:25:49;;;;;;;;;;;6.60;98.10;;;;;;5077299;28;19958;-72
2022/02/14 04:28:15;;;;;;;;;;;6.60;98.10;;;;;;5077845;28;19974;-72
2022/02/14 04:30:41;;;;;;;;;;;6.60;98.20;;;;;;5077801;28;19908;-72
2022/02/14 04:33:06;;;;;;;;;;;6.60;98.20;;;;;;5077277;28;20050;-72
2022/02/14 04:35:32;;;;;;;;;;;6.60;98.30;;;;;;5076954;28;20355;-72
2022/02/14 04:38:01;;;;;;;;;;;6.60;98.40;;;;;;5076212;28;19997;-71
2022/02/14 04:40:28;;;;;;;;;;;6.60;98.40;;;;;;5077199;28;20280;-72
2022/02/14 04:42:54;;;;;;;;;;;6.50;98.30;;;;;;5077316;28;19908;-72
2022/02/14 04:45:20;;;;;;;;;;;6.60;98.30;;;;;;5077205;28;20290;-72
2022/02/14 04:47:45;;;;;;;;;;;6.50;98.30;;;;;;5076646;28;19923;-72
2022/02/14 04:50:11;;;;;;;;;;;6.50;98.30;;;;;;5077853;28;19995;-72
2022/02/14 04:52:37;;;;;;;;;;;6.50;98.30;;;;;;5077109;28;20003;-72
2022/02/14 04:55:02;;;;;;;;;;;6.50;98.20;;;;;;5077618;28;19908;-72
2022/02/14 04:57:28;;;;;;;;;;;6.50;98.20;;;;;;5076517;28;19939;-72
2022/02/14 04:59:54;;;;;;;;;;;6.50;98.10;;;;;;5077789;28;20326;-72
2022/02/14 05:02:19;;;;;;;;;;;6.40;98.10;;;;;;5077481;28;19939;-72
2022/02/14 05:04:45;;;;;;;;;;;6.40;98.10;;;;;;5077172;28;19951;-72
2022/02/14 05:07:10;;;;;;;;;;;6.40;98.00;;;;;;5076793;28;20004;-72
2022/02/14 05:09:36;;;;;;;;;;;6.40;98.00;;;;;;5076768;28;19916;-72
2022/02/14 05:12:02;;;;;;;;;;;6.30;97.90;;;;;;5077441;28;19962;-72
2022/02/14 05:14:29;;;;;;;;;;;6.30;97.80;;;;;;5076933;28;19924;-72
2022/02/14 05:16:54;;;;;;;;;;;6.30;97.80;;;;;;5076747;28;19913;-72
2022/02/14 05:19:20;;;;;;;;;;;6.20;97.70;;;;;;5076362;28;19919;-72
2022/02/14 05:21:46;;;;;;;;;;;6.20;97.60;;;;;;5076980;28;19913;-72
2022/02/14 05:24:11;;;;;;;;;;;6.20;97.50;;;;;;5076913;28;20275;-71
2022/02/14 05:26:37;;;;;;;;;;;6.20;97.50;;;;;;5077163;28;20551;-72
2022/02/14 05:29:03;;;;;;;;;;;6.10;97.40;;;;;;5076425;28;19909;-72
2022/02/14 05:31:29;;;;;;;;;;;6.10;97.40;;;;;;5076842;28;19964;-72
2022/02/14 05:33:55;;;;;;;;;;;6.10;97.30;;;;;;5077226;28;20314;-72
2022/02/14 05:36:22;;;;;;;;;;;6.00;97.40;;;;;;5075984;28;19920;-70
2022/02/14 05:38:47;;;;;;;;;;;6.00;97.30;;;;;;5076794;28;20399;-71
2022/02/14 05:41:14;;;;;;;;;;;6.00;97.30;;;;;;5070224;28;20011;-70
2022/02/14 05:43:40;;;;;;;;;;;6.00;97.30;;;;;;5075238;28;19908;-70
2022/02/14 05:46:13;;;;;;;;;;;5.90;97.30;;;;;;5076840;28;19924;-70
2022/02/14 05:48:42;;;;;;;;;;;5.90;97.30;;;;;;5079369;28;20302;-70
2022/02/14 05:51:09;;;;;;;;;;;5.90;97.30;;;;;;5078854;28;19968;-70
2022/02/14 05:53:35;;;;;;;;;;;5.90;97.30;;;;;;5079021;28;19983;-71
2022/02/14 05:56:01;;;;;;;;;;;5.90;97.40;;;;;;5080620;28;19908;-72
2022/02/14 05:58:26;;;;;;;;;;;5.80;97.40;;;;;;5080850;28;19916;-73
2022/02/14 06:00:52;;;;;;;;;;;5.90;97.40;;;;;;5080851;28;19909;-73
2022/02/14 06:03:18;;;;;;;;;;;5.90;97.50;;;;;;5080605;28;19912;-72
2022/02/14 06:05:43;;;;;;;;;;;5.80;97.50;;;;;;5080844;28;20003;-71
2022/02/14 06:08:09;;;;;;;;;;;5.80;97.50;;;;;;5080635;28;19915;-71
2022/02/14 06:10:34;;;;;;;;;;;5.90;97.60;;;;;;5080076;28;20340;-72
2022/02/14 06:13:00;;;;;;;;;;;5.80;97.60;;;;;;5079912;28;19980;-69
2022/02/14 06:15:26;;;;;;;;;;;5.80;97.60;;;;;;5080262;28;19999;-72
2022/02/14 06:17:52;;;;;;;;;;;5.80;97.60;;;;;;5079472;28;19932;-71
2022/02/14 06:20:17;;;;;;;;;;;5.80;97.60;;;;;;5079580;28;19921;-70
2022/02/14 06:22:43;;;;;;;;;;;5.70;97.50;;;;;;5079480;28;20493;-71
2022/02/14 06:25:09;;;;;;;;;;;5.80;97.50;;;;;;5079019;28;20390;-70
2022/02/14 06:27:34;;;;;;;;;;;5.70;97.50;;;;;;5078286;28;19935;-71
2022/02/14 06:30:00;;;;;;;;;;;5.80;97.60;;;;;;5079488;28;19984;-72
2022/02/14 06:32:26;;;;;;;;;;;5.70;97.60;;;;;;5078997;28;20272;-71
2022/02/14 06:34:52;;;;;;;;;;;5.70;97.70;;;;;;5076866;28;19920;-72
2022/02/14 06:37:18;;;;;;;;;;;5.70;97.60;;;;;;5068400;28;20445;-72
2022/02/14 06:39:44;;;;;;;;;;;5.70;97.70;;;;;;5069234;28;19917;-72
2022/02/14 06:42:10;;;;;;;;;;;5.70;97.70;;;;;;5079860;28;19912;-72
2022/02/14 06:44:35;;;;;;;;;;;5.70;97.70;;;;;;5079776;28;19928;-72
2022/02/14 06:47:02;;;;;;;;;;;5.70;97.70;;;;;;5078757;28;19938;-72
2022/02/14 06:49:27;;;;;;;;;;;5.60;97.70;;;;;;5080064;28;20152;-71
2022/02/14 06:51:53;;;;;;;;;;;5.70;97.80;;;;;;5079980;28;19909;-72
2022/02/14 06:54:19;;;;;;;;;;;5.70;97.90;;;;;;5079234;28;19924;-71
2022/02/14 06:56:44;;;;;;;;;;;5.70;97.90;;;;;;5079782;28;19909;-71
2022/02/14 06:59:10;;;;;;;;;;;5.60;97.90;;;;;;5077796;28;19915;-71
2022/02/14 07:01:36;;;;;;;;;;;5.60;97.90;;;;;;5079812;28;20321;-72
2022/02/14 07:04:01;;;;;;;;;;;5.60;98.00;;;;;;5079479;28;19915;-72
2022/02/14 07:06:28;;;;;;;;;;;5.70;98.10;;;;;;5078372;28;19908;-72
2022/02/14 07:08:54;;;;;;;;;;;5.70;98.20;;;;;;5079362;28;20386;-72
2022/02/14 07:11:20;;;;;;;;;;;5.70;98.30;;;;;;5071057;28;20063;-71
2022/02/14 07:13:46;;;;;;;;;;;5.70;98.30;;;;;;5072865;28;19959;-72
2022/02/14 07:16:12;;;;;;;;;;;5.70;98.30;;;;;;5079568;28;19909;-72
2022/02/14 07:18:37;;;;;;;;;;;5.70;98.30;;;;;;5079180;28;19916;-72
2022/02/14 07:21:03;;;;;;;;;;;5.70;98.40;;;;;;5078086;28;19916;-72
2022/02/14 07:23:29;;;;;;;;;;;5.70;98.40;;;;;;5079215;28;20287;-71
2022/02/14 07:25:55;;;;;;;;;;;5.60;98.50;;;;;;5079030;28;19908;-71
2022/02/14 07:28:20;;;;;;;;;;;5.70;98.60;;;;;;5079176;28;19952;-72
2022/02/14 07:30:46;;;;;;;;;;;5.70;98.60;;;;;;5079246;28;20343;-71
2022/02/14 07:33:11;;;;;;;;;;;5.70;98.60;;;;;;5078912;28;19936;-72
2022/02/14 07:35:37;;;;;;;;;;;5.70;98.60;;;;;;5079049;28;20338;-72
2022/02/14 07:38:03;;;;;;;;;;;5.70;98.70;;;;;;5078914;28;19993;-71
2022/02/14 07:40:29;;;;;;;;;;;5.70;98.80;;;;;;5075189;28;19913;-72
2022/02/14 07:42:55;;;;;;;;;;;5.70;98.80;;;;;;5079062;28;19914;-72
2022/02/14 07:45:21;;;;;;;;;;;5.80;98.80;;;;;;5078775;28;20003;-72
2022/02/14 07:47:47;;;;;;;;;;;5.80;98.80;;;;;;5078616;28;19951;-72
2022/02/14 07:50:13;;;;;;;;;;;5.80;98.90;;;;;;5078879;28;19908;-72
2022/02/14 07:52:39;;;;;;;;;;;5.80;98.90;;;;;;5078627;28;20330;-71
2022/02/14 07:55:05;;;;;;;;;;;5.90;99.00;;;;;;5078520;28;19964;-71
2022/02/14 07:57:31;;;;;;;;;;;5.90;99.00;;;;;;5078554;28;19917;-71
2022/02/14 07:59:57;;;;;;;;;;;5.90;99.00;;;;;;5078617;28;19979;-71
2022/02/14 08:02:22;;;;;;;;;;;5.80;98.90;;;;;;5078295;28;19969;-72
2022/02/14 08:04:48;;;;;;;;;;;5.90;98.90;;;;;;5078653;28;20007;-71
2022/02/14 08:07:13;;;;;;;;;;;5.90;98.90;;;;;;5078371;28;19916;-72
2022/02/14 08:09:39;;;;;;;;;;;6.00;99.00;;;;;;5078041;28;20339;-72
2022/02/14 08:12:07;;;;;;;;;;;6.00;99.10;;;;;;5064171;28;19908;-71
2022/02/14 08:14:37;;;;;;;;;;;6.20;99.50;;;;;;5078529;28;19916;-71
2022/02/14 08:17:06;;;;;;;;;;;6.30;99.30;;;;;;5078189;28;19909;-72
2022/02/14 08:19:32;;;;;;;;;;;6.40;99.30;;;;;;5078347;28;19909;-72
2022/02/14 08:21:58;;;;;;;;;;;6.60;99.30;;;;;;5078047;28;20382;-72
2022/02/14 08:24:24;;;;;;;;;;;6.70;99.10;;;;;;5077880;28;19938;-71
2022/02/14 08:26:50;;;;;;;;;;;6.70;99.00;;;;;;5076672;28;20291;-72
2022/02/14 08:29:15;;;;;;;;;;;6.80;98.90;;;;;;5078206;28;20359;-72
2022/02/14 08:31:41;;;;;;;;;;;6.80;98.80;;;;;;5078097;28;19928;-72
2022/02/14 08:34:07;;;;;;;;;;;6.90;98.80;;;;;;5077984;28;19978;-72
2022/02/14 08:36:33;;;;;;;;;;;7.00;98.70;;;;;;5077888;28;19954;-72
2022/02/14 08:38:59;;;;;;;;;;;7.10;98.70;;;;;;5077753;28;19912;-72
2022/02/14 08:41:25;;;;;;;;;;;7.20;98.70;;;;;;5074542;28;19968;-72
2022/02/14 08:43:50;;;;;;;;;;;7.30;98.70;;;;;;5077899;28;19984;-71
2022/02/14 08:46:19;;;;;;;;;;;7.50;98.70;;;;;;5077786;28;19944;-72
2022/02/14 08:48:46;;;;;;;;;;;7.60;98.60;;;;;;5078112;28;19909;-72
2022/02/14 08:51:11;;;;;;;;;;;7.70;98.40;;;;;;5077728;28;19908;-72
2022/02/14 08:53:37;;;;;;;;;;;7.70;98.10;;;;;;5077906;28;19923;-72
2022/02/14 08:56:04;;;;;;;;;;;7.80;97.90;;;;;;5077349;28;19908;-72
2022/02/14 08:58:30;;;;;;;;;;;7.80;97.80;;;;;;5078040;28;19908;-72
2022/02/14 09:00:55;;;;;;;;;;;7.70;97.70;;;;;;5077726;28;19916;-72
2022/02/14 09:03:21;;;;;;;;;;;7.70;97.70;;;;;;5077813;28;19948;-72
2022/02/14 09:05:47;;;;;;;;;;;7.70;97.80;;;;;;5077681;28;20007;-72
2022/02/14 09:08:13;;;;;;;;;;;7.60;97.80;;;;;;5077626;28;19936;-72
2022/02/14 09:10:38;;;;;;;;;;;7.60;97.90;;;;;;5074562;28;19948;-72
2022/02/14 09:13:04;;;;;;;;;;;7.70;98.00;;;;;;5066676;28;20382;-72
2022/02/14 09:15:30;;;;;;;;;;;7.60;97.90;;;;;;5077425;28;19916;-71
2022/02/14 09:17:55;;;;;;;;;;;7.60;98.00;;;;;;5077526;28;20086;-72
2022/02/14 09:20:23;;;;;;;;;;;7.60;98.00;;;;;;5077437;28;19916;-72
2022/02/14 09:22:54;;;;;;;;;;;7.70;98.10;;;;;;5080084;28;19973;-72
2022/02/14 09:25:21;;;;;;;;;;;7.80;98.30;;;;;;5081229;28;19908;-72
2022/02/14 09:27:46;;;;;;;;;;;7.80;98.40;;;;;;5081407;28;20375;-72
2022/02/14 09:30:12;;;;;;;;;;;7.90;98.40;;;;;;5081337;28;19930;-72
2022/02/14 09:32:38;;;;;;;;;;;8.00;98.30;;;;;;5081391;28;20383;-72
2022/02/14 09:35:04;;;;;;;;;;;8.00;98.10;;;;;;5081201;28;19912;-72
2022/02/14 09:37:31;;;;;;;;;;;8.00;98.00;;;;;;5081219;28;19909;-72
2022/02/14 09:39:57;;;;;;;;;;;8.20;98.50;;;;;;5077415;28;19915;-72
2022/02/14 09:42:23;;;;;;;;;;;8.60;99.30;;;;;;5081099;28;19909;-72
2022/02/14 09:44:48;;;;;;;;;;;9.10;99.60;;;;;;5080866;28;19956;-72
2022/02/14 09:47:15;;;;;;;;;;;9.80;99.70;;;;;;5081112;28;19909;-72
2022/02/14 09:49:44;;;;;;;;;;;10.50;98.70;;;;;;5079631;28;19908;-72
2022/02/14 09:52:11;;;;;;;;;;;11.20;97.60;;;;;;5081004;28;19909;-72
2022/02/14 09:54:36;;;;;;;;;;;11.60;96.80;;;;;;5080421;28;19954;-72
2022/02/14 09:57:03;;;;;;;;;;;12.10;96.20;;;;;;5081186;28;19909;-72
2022/02/14 09:59:29;;;;;;;;;;;12.60;95.50;;;;;;5080873;28;19920;-72
2022/02/14 10:01:54;;;;;;;;;;;13.20;93.70;;;;;;5080974;28;19909;-72
2022/02/14 10:04:22;;;;;;;;;;;13.60;93.00;;;;;;5080597;28;19909;-72
2022/02/14 10:06:48;;;;;;;;;;;14.00;92.70;;;;;;5080621;28;20371;-72
2022/02/14 10:09:19;;;;;;;;;;;14.40;92.70;;;;;;5080505;28;19931;-72
2022/02/14 10:11:59;;;;;;;;;;;15.10;90.70;;;;;;5069026;28;20275;-72
2022/02/14 10:14:25;;;;;;;;;;;15.60;89.80;;;;;;5067587;28;20378;-73
2022/02/14 10:17:00;;;;;;;;;;;15.90;90.00;;;;;;5080460;28;20386;-72
2022/02/14 10:19:26;;;;;;;;;;;16.30;88.60;;;;;;5080457;28;20326;-72
2022/02/14 10:21:52;;;;;;;;;;;16.50;87.80;;;;;;5080458;28;19908;-72
2022/02/14 10:24:18;;;;;;;;;;;16.70;86.70;;;;;;5080103;28;19937;-72
2022/02/14 10:26:47;;;;;;;;;;;16.80;86.50;;;;;;5080458;28;19995;-72
2022/02/14 10:29:16;;;;;;;;;;;17.20;82.60;;;;;;5080628;28;20241;-72
2022/02/14 10:31:47;;;;;;;;;;;17.10;80.80;;;;;;5080099;28;20283;-72
2022/02/14 10:34:13;;;;;;;;;;;17.10;81.20;;;;;;5079180;28;19913;-73
2022/02/14 10:36:43;;;;;;;;;;;17.30;81.50;;;;;;5080171;28;19915;-72
2022/02/14 10:39:16;;;;;;;;;;;17.70;83.00;;;;;;5078343;28;19909;-73
2022/02/14 10:41:43;;;;;;;;;;;18.40;79.60;;;;;;5079084;28;19909;-73
2022/02/14 10:44:09;;;;;;;;;;;18.50;72.00;;;;;;5079898;28;19927;-73
2022/02/14 10:46:34;;;;;;;;;;;18.20;70.60;;;;;;5080167;28;19909;-72
2022/02/14 10:49:01;;;;;;;;;;;17.70;71.90;;;;;;5080072;28;19948;-72
2022/02/14 10:51:26;;;;;;;;;;;17.10;71.60;;;;;;5080093;28;19915;-73
2022/02/14 10:53:54;;;;;;;;;;;16.80;74.00;;;;;;5079481;28;19972;-72
2022/02/14 10:56:19;;;;;;;;;;;16.80;72.80;;;;;;5079631;28;19908;-73
2022/02/14 10:58:46;;;;;;;;;;;16.90;70.30;;;;;;5080086;28;19954;-73
2022/02/14 11:01:12;;;;;;;;;;;17.40;70.30;;;;;;5079767;28;19948;-73
2022/02/14 11:03:39;;;;;;;;;;;17.80;66.90;;;;;;5079750;28;20315;-73
2022/02/14 11:06:04;;;;;;;;;;;18.20;68.30;;;;;;5066620;28;19915;-73
2022/02/14 11:08:32;;;;;;;;;;;18.60;71.30;;;;;;5079713;28;19908;-72
2022/02/14 11:11:00;;;;;;;;;;;19.00;68.40;;;;;;5061048;28;19909;-72
2022/02/14 11:13:28;;;;;;;;;;;19.40;68.90;;;;;;5071924;28;19913;-73
2022/02/14 11:15:54;;;;;;;;;;;19.60;68.40;;;;;;5079349;28;20325;-72
2022/02/14 11:18:21;;;;;;;;;;;19.90;68.30;;;;;;5079477;28;19913;-72
2022/02/14 11:20:49;;;;;;;;;;;20.00;67.30;;;;;;5079386;28;19981;-73
2022/02/14 11:23:16;;;;;;;;;;;19.80;63.50;;;;;;5079246;28;19909;-73
2022/02/14 11:26:01;;;;;;;;;;;19.60;62.40;;;;;;5079034;28;19908;-73
2022/02/14 11:28:30;;;;;;;;;;;19.30;62.80;;;;;;5079155;28;19908;-73
2022/02/14 11:31:17;;;;;;;;;;;19.00;65.60;;;;;;5079313;28;19908;-72
2022/02/14 11:34:12;;;;;;;;;;;18.70;65.30;;;;;;5074753;28;20378;-73
2022/02/14 11:36:38;;;;;;;;;;;18.20;65.80;;;;;;5058028;28;19936;-72
2022/02/14 11:39:08;;;;;;;;;;;17.90;65.40;;;;;;5077828;28;19909;-72
2022/02/14 11:41:46;;;;;;;;;;;17.50;66.10;;;;;;5077285;28;19976;-72
2022/02/14 11:44:14;;;;;;;;;;;17.20;68.10;;;;;;5078586;28;20272;-73
2022/02/14 11:46:43;;;;;;;;;;;17.20;67.30;;;;;;5077562;28;19908;-73
2022/02/14 11:49:11;;;;;;;;;;;17.20;67.10;;;;;;5078841;28;19947;-73
2022/02/14 11:51:37;;;;;;;;;;;17.30;68.40;;;;;;5078978;28;19913;-73
2022/02/14 11:54:06;;;;;;;;;;;17.30;68.50;;;;;;5078034;28;19912;-73
2022/02/14 11:56:32;;;;;;;;;;;17.10;68.40;;;;;;5078684;28;19917;-73
2022/02/14 11:59:01;;;;;;;;;;;16.90;68.50;;;;;;5078559;28;19917;-73
2022/02/14 12:01:30;;;;;;;;;;;17.10;71.30;;;;;;5078935;28;19908;-72
2022/02/14 12:04:14;;;;;;;;;;;17.30;67.80;;;;;;5078675;28;19965;-73
2022/02/14 12:06:59;;;;;;;;;;;17.20;66.80;;;;;;5078515;28;19909;-73
2022/02/14 12:09:24;;;;;;;;;;;16.90;67.90;;;;;;5066076;28;19908;-73
2022/02/14 12:11:50;;;;;;;;;;;16.40;65.30;;;;;;5066069;28;20051;-73
2022/02/14 12:14:17;;;;;;;;;;;15.90;64.00;;;;;;5075965;28;19912;-73
2022/02/14 12:22:50;;;;;;;;;;;14.50;70.80;;;;;;5016458;28;19916;-72
2022/02/14 12:25:15;;;;;;;;;;;13.90;71.20;;;;;;5071868;28;19965;-72
2022/02/14 12:27:41;;;;;;;;;;;13.30;71.10;;;;;;5078231;28;19916;-73
2022/02/14 12:30:17;;;;;;;;;;;12.90;72.10;;;;;;5078063;28;19908;-72
2022/02/14 12:32:47;;;;;;;;;;;12.70;74.40;;;;;;5078191;28;19952;-72
2022/02/14 12:35:12;;;;;;;;;;;12.40;74.40;;;;;;5077860;28;20401;-73
2022/02/14 12:37:38;;;;;;;;;;;12.30;75.80;;;;;;5077965;28;19913;-73
2022/02/14 12:40:04;;;;;;;;;;;12.10;76.30;;;;;;5074263;28;20010;-72
2022/02/14 12:42:31;;;;;;;;;;;12.00;76.60;;;;;;5078152;28;20026;-72
2022/02/14 12:44:57;;;;;;;;;;;11.90;77.40;;;;;;5077719;28;19931;-72
2022/02/14 12:47:23;;;;;;;;;;;11.80;78.00;;;;;;5059913;28;20349;-73
2022/02/14 12:50:03;;;;;;;;;;;11.70;78.20;;;;;;5077756;28;19956;-72
2022/02/14 12:52:29;;;;;;;;;;;11.60;79.00;;;;;;5077688;28;19909;-73
2022/02/14 12:54:56;;;;;;;;;;;11.50;79.80;;;;;;5077453;28;19919;-72
2022/02/14 12:57:32;;;;;;;;;;;11.60;80.20;;;;;;5077127;28;20398;-72
2022/02/14 12:59:57;;;;;;;;;;;11.50;80.20;;;;;;5077861;28;19962;-73
2022/02/14 13:02:23;;;;;;;;;;;11.50;80.70;;;;;;5077703;28;19915;-72
2022/02/14 13:04:48;;;;;;;;;;;11.50;81.10;;;;;;5077724;28;19944;-73
2022/02/14 13:07:14;;;;;;;;;;;11.60;81.30;;;;;;5077719;28;19999;-72
2022/02/14 13:09:40;;;;;;;;;;;11.70;81.90;;;;;;5077592;28;19951;-72
2022/02/14 13:12:11;;;;;;;;;;;11.90;83.30;;;;;;5063952;28;19909;-73
2022/02/14 13:14:42;;;;;;;;;;;12.50;84.20;;;;;;5077788;28;19919;-73
2022/02/14 13:17:15;;;;;;;;;;;13.10;83.90;;;;;;5077667;28;20495;-73
2022/02/14 13:19:48;;;;;;;;;;;13.70;83.00;;;;;;5077483;28;19958;-73
2022/02/14 13:22:20;;;;;;;;;;;14.20;82.10;;;;;;5077382;28;19909;-72
2022/02/14 13:24:46;;;;;;;;;;;14.50;77.50;;;;;;5077320;28;19905;-73
2022/02/14 13:27:14;;;;;;;;;;;14.60;77.40;;;;;;5077402;28;19931;-73
2022/02/14 13:29:39;;;;;;;;;;;14.40;74.50;;;;;;5077446;28;20423;-72
2022/02/14 13:32:06;;;;;;;;;;;14.20;75.40;;;;;;5077113;28;19994;-73
2022/02/14 13:34:32;;;;;;;;;;;14.10;74.50;;;;;;5077535;28;19917;-73
2022/02/14 13:36:59;;;;;;;;;;;14.10;76.30;;;;;;5077266;28;19919;-73
2022/02/14 13:39:28;;;;;;;;;;;14.10;76.70;;;;;;5073290;28;19948;-73
2022/02/14 13:41:53;;;;;;;;;;;14.10;76.20;;;;;;5077200;28;20283;-73
2022/02/14 13:44:19;;;;;;;;;;;14.10;75.60;;;;;;5077156;28;19924;-72
2022/02/14 13:46:45;;;;;;;;;;;14.10;75.60;;;;;;5064163;28;19909;-73
2022/02/14 13:49:10;;;;;;;;;;;14.10;75.60;;;;;;5077138;28;19908;-72
2022/02/14 13:51:39;;;;;;;;;;;14.10;75.50;;;;;;5077356;28;19994;-73
2022/02/14 13:54:10;;;;;;;;;;;13.90;73.80;;;;;;5076651;28;20009;-73
2022/02/14 13:56:46;;;;;;;;;;;14.00;75.90;;;;;;5077253;28;19908;-73
2022/02/14 13:59:13;;;;;;;;;;;13.90;76.20;;;;;;5077257;28;19908;-72
2022/02/14 14:01:39;;;;;;;;;;;13.80;75.40;;;;;;5077407;28;19966;-73
2022/02/14 14:04:28;;;;;;;;;;;13.60;75.10;;;;;;5076859;28;19908;-72
2022/02/14 14:07:06;;;;;;;;;;;13.50;74.80;;;;;;5077227;28;19915;-72
2022/02/14 14:09:38;;;;;;;;;;;13.40;76.00;;;;;;5078677;28;19931;-73
2022/02/14 14:12:08;;;;;;;;;;;13.40;76.90;;;;;;5067166;28;19909;-73
2022/02/14 14:14:38;;;;;;;;;;;13.30;75.90;;;;;;5080721;28;19998;-72
2022/02/14 14:17:04;;;;;;;;;;;13.30;76.50;;;;;;5080457;28;19916;-73
2022/02/14 14:19:30;;;;;;;;;;;13.30;76.20;;;;;;5080513;28;19915;-72
2022/02/14 14:21:56;;;;;;;;;;;13.20;74.30;;;;;;5080671;28;20568;-72
2022/02/14 14:24:21;;;;;;;;;;;13.20;76.20;;;;;;5080176;28;19916;-72
2022/02/14 14:26:47;;;;;;;;;;;13.20;76.90;;;;;;5080346;28;20419;-73
2022/02/14 14:29:13;;;;;;;;;;;13.10;75.90;;;;;;5080607;28;19985;-72
2022/02/14 14:31:39;;;;;;;;;;;13.10;75.50;;;;;;5078901;28;19999;-73